createdAt,value
2023-05-21T00:01:25.900Z,101841.47
2023-05-21T00:03:52.714Z,101846.44
2023-05-21T00:06:21.011Z,101836.03
2023-05-21T00:08:47.673Z,101837.03
2023-05-21T00:11:14.164Z,101841.88
2023-05-21T00:13:40.983Z,101834.22
2023-05-21T00:16:07.930Z,101830.78
2023-05-21T00:18:34.434Z,101826.16
2023-05-21T00:21:01.646Z,101828.50
2023-05-21T00:23:28.530Z,101822.84
2023-05-21T00:25:55.090Z,101821.69
2023-05-21T00:28:21.648Z,101815.41
2023-05-21T00:30:48.375Z,101817.03
2023-05-21T00:33:15.045Z,101807.97
2023-05-21T00:35:41.750Z,101808.78
2023-05-21T00:38:10.122Z,101806.47
2023-05-21T00:40:36.605Z,101803.16
2023-05-21T00:43:03.421Z,101801.31
2023-05-21T00:45:30.106Z,101811.59
2023-05-21T00:47:56.853Z,101803.28
2023-05-21T00:50:23.592Z,101796.19
2023-05-21T00:52:50.531Z,101792.03
2023-05-21T00:55:17.201Z,101794.03
2023-05-21T00:57:43.791Z,101789.38
2023-05-21T01:00:10.991Z,101784.44
2023-05-21T01:02:38.553Z,101792.72
2023-05-21T01:05:06.641Z,101792.38
2023-05-21T01:07:35.154Z,101794.50
2023-05-21T01:10:09.494Z,101785.09
2023-05-21T01:12:38.120Z,101789.22
2023-05-21T01:15:05.766Z,101789.53
2023-05-21T01:17:34.120Z,101785.38
2023-05-21T01:20:01.798Z,101795.50
2023-05-21T01:22:32.363Z,101786.88
2023-05-21T01:24:58.957Z,101781.25
2023-05-21T01:27:25.677Z,101777.59
2023-05-21T01:29:52.210Z,101788.03
2023-05-21T01:33:06.341Z,101781.91
2023-05-21T01:35:36.175Z,101779.44
2023-05-21T01:38:22.836Z,101778.75
2023-05-21T01:40:55.222Z,101771.63
2023-05-21T01:43:23.489Z,101765.53
2023-05-21T01:45:54.692Z,101769.50
2023-05-21T01:48:23.765Z,101759.25
2023-05-21T01:50:51.273Z,101773.81
2023-05-21T01:53:17.954Z,101765.38
2023-05-21T01:55:44.693Z,101764.03
2023-05-21T01:58:11.579Z,101756.75
2023-05-21T02:00:40.030Z,101766.00
2023-05-21T02:03:06.556Z,101762.38
2023-05-21T02:05:33.149Z,101763.53
2023-05-21T02:08:00.124Z,101764.16
2023-05-21T02:10:26.847Z,101762.50
2023-05-21T02:12:53.315Z,101764.31
2023-05-21T02:15:19.877Z,101762.31
2023-05-21T02:17:46.794Z,101757.47
2023-05-21T02:20:14.593Z,101759.50
2023-05-21T02:22:43.299Z,101763.66
2023-05-21T02:25:11.032Z,101754.69
2023-05-21T02:27:39.232Z,101752.53
2023-05-21T02:30:08.481Z,101748.94
2023-05-21T02:32:35.972Z,101754.38
2023-05-21T02:35:04.108Z,101755.34
2023-05-21T02:37:34.933Z,101757.03
2023-05-21T02:40:04.237Z,101755.34
2023-05-21T02:42:30.781Z,101750.91
2023-05-21T02:44:57.350Z,101762.47
2023-05-21T02:47:25.512Z,101761.78
2023-05-21T02:49:53.021Z,101756.31
2023-05-21T02:52:22.578Z,101754.34
2023-05-21T02:54:49.385Z,101751.84
2023-05-21T02:57:15.826Z,101747.88
2023-05-21T02:59:42.338Z,101753.00
2023-05-21T03:02:09.132Z,101744.38
2023-05-21T03:04:38.924Z,101745.38
2023-05-21T03:07:06.156Z,101751.34
2023-05-21T03:09:32.845Z,101752.50
2023-05-21T03:11:59.311Z,101749.16
2023-05-21T03:14:25.762Z,101751.47
2023-05-21T03:16:52.317Z,101743.69
2023-05-21T03:19:19.036Z,101748.16
2023-05-21T03:21:45.611Z,101736.25
2023-05-21T03:24:13.749Z,101742.22
2023-05-21T03:26:40.329Z,101749.16
2023-05-21T03:29:06.841Z,101748.16
2023-05-21T03:31:33.416Z,101735.59
2023-05-21T03:34:00.066Z,101738.84
2023-05-21T03:36:26.583Z,101732.41
2023-05-21T03:38:53.150Z,101732.72
2023-05-21T03:41:19.671Z,101731.88
2023-05-21T03:43:46.066Z,101727.88
2023-05-21T03:46:12.683Z,101726.75
2023-05-21T03:48:39.248Z,101733.16
2023-05-21T03:51:05.737Z,101726.38
2023-05-21T03:53:34.228Z,101732.50
2023-05-21T03:56:00.658Z,101730.38
2023-05-21T03:58:28.149Z,101729.03
2023-05-21T04:00:54.694Z,101731.38
2023-05-21T04:03:21.264Z,101731.38
2023-05-21T04:05:48.670Z,101739.31
2023-05-21T04:08:16.065Z,101737.28
2023-05-21T04:10:42.560Z,101738.13
2023-05-21T04:13:09.023Z,101737.28
2023-05-21T04:15:35.668Z,101734.63
2023-05-21T04:18:02.454Z,101744.22
2023-05-21T04:20:29.026Z,101749.81
2023-05-21T04:22:55.631Z,101749.34
2023-05-21T04:25:23.192Z,101748.53
2023-05-21T04:27:50.195Z,101750.69
2023-05-21T04:30:16.758Z,101750.34
2023-05-21T04:32:45.961Z,101753.81
2023-05-21T04:35:15.159Z,101743.41
2023-05-21T04:37:42.222Z,101743.75
2023-05-21T04:40:09.722Z,101752.88
2023-05-21T04:42:36.449Z,101749.41
2023-05-21T04:45:03.652Z,101743.13
2023-05-21T04:47:30.469Z,101749.03
2023-05-21T04:49:57.234Z,101749.72
2023-05-21T04:52:25.076Z,101753.88
2023-05-21T04:54:51.835Z,101750.78
2023-05-21T04:57:18.357Z,101744.28
2023-05-21T04:59:45.077Z,101749.56
2023-05-21T05:02:11.519Z,101741.44
2023-05-21T05:04:38.185Z,101747.31
2023-05-21T05:07:04.905Z,101744.81
2023-05-21T05:09:31.763Z,101746.31
2023-05-21T05:11:58.232Z,101743.81
2023-05-21T05:14:24.746Z,101750.13
2023-05-21T05:16:51.386Z,101753.94
2023-05-21T05:19:18.197Z,101746.31
2023-05-21T05:21:44.760Z,101741.53
2023-05-21T05:24:11.243Z,101735.28
2023-05-21T05:26:37.768Z,101739.06
2023-05-21T05:29:04.270Z,101738.25
2023-05-21T05:31:31.097Z,101737.13
2023-05-21T05:33:58.407Z,101740.75
2023-05-21T05:36:25.255Z,101744.06
2023-05-21T05:38:52.044Z,101737.94
2023-05-21T05:41:18.871Z,101746.88
2023-05-21T05:43:46.026Z,101747.41
2023-05-21T05:46:12.837Z,101746.94
2023-05-21T05:48:40.044Z,101739.34
2023-05-21T05:51:06.628Z,101733.38
2023-05-21T05:53:33.249Z,101730.44
2023-05-21T05:55:59.947Z,101731.41
2023-05-21T05:58:26.732Z,101733.91
2023-05-21T06:00:53.630Z,101729.50
2023-05-21T06:03:20.627Z,101736.13
2023-05-21T06:05:47.637Z,101739.22
2023-05-21T06:08:14.221Z,101742.72
2023-05-21T06:10:40.848Z,101736.63
2023-05-21T06:13:08.349Z,101731.66
2023-05-21T06:15:35.255Z,101738.63
2023-05-21T06:18:02.389Z,101738.47
2023-05-21T06:20:30.000Z,101736.00
2023-05-21T06:22:56.515Z,101734.66
2023-05-21T06:25:23.442Z,101741.78
2023-05-21T06:27:49.983Z,101739.50
2023-05-21T06:30:16.440Z,101741.50
2023-05-21T06:32:43.598Z,101743.31
2023-05-21T06:35:10.232Z,101738.66
2023-05-21T06:37:36.973Z,101745.47
2023-05-21T06:40:03.873Z,101744.28
2023-05-21T06:42:31.074Z,101739.31
2023-05-21T06:44:57.674Z,101743.59
2023-05-21T06:47:24.187Z,101746.06
2023-05-21T06:49:50.726Z,101736.72
2023-05-21T06:52:17.283Z,101739.69
2023-05-21T06:54:43.792Z,101726.56
2023-05-21T06:57:10.347Z,101731.00
2023-05-21T06:59:36.852Z,101726.50
2023-05-21T07:02:04.748Z,101731.31
2023-05-21T07:04:31.458Z,101731.28
2023-05-21T07:06:57.911Z,101720.59
2023-05-21T07:09:24.439Z,101723.41
2023-05-21T07:11:53.012Z,101714.25
2023-05-21T07:14:19.638Z,101716.19
2023-05-21T07:16:46.353Z,101708.97
2023-05-21T07:19:13.068Z,101708.31
2023-05-21T07:21:39.673Z,101708.75
2023-05-21T07:24:09.351Z,101714.03
2023-05-21T07:26:35.964Z,101709.81
2023-05-21T07:29:02.493Z,101711.13
2023-05-21T07:31:29.132Z,101708.91
2023-05-21T07:33:55.940Z,101701.56
2023-05-21T07:36:22.429Z,101693.03
2023-05-21T07:38:48.926Z,101705.59
2023-05-21T07:41:18.400Z,101704.41
2023-05-21T07:43:45.076Z,101705.19
2023-05-21T07:46:11.797Z,101707.28
2023-05-21T07:48:38.499Z,101703.53
2023-05-21T07:51:05.426Z,101697.03
2023-05-21T07:53:33.311Z,101700.22
2023-05-21T07:56:00.638Z,101698.25
2023-05-21T07:58:27.098Z,101692.19
2023-05-21T08:00:53.963Z,101701.69
2023-05-21T08:03:21.095Z,101688.69
2023-05-21T08:05:50.930Z,101698.41
2023-05-21T08:08:18.980Z,101689.22
2023-05-21T08:10:46.683Z,101681.91
2023-05-21T08:13:13.749Z,101684.44
2023-05-21T08:15:40.197Z,101687.66
2023-05-21T08:18:06.805Z,101680.94
2023-05-21T08:20:33.621Z,101678.63
2023-05-21T08:23:00.383Z,101676.84
2023-05-21T08:25:27.618Z,101678.88
2023-05-21T08:27:54.406Z,101681.13
2023-05-21T08:30:21.122Z,101677.84
2023-05-21T08:32:48.336Z,101680.25
2023-05-21T08:35:14.958Z,101692.31
2023-05-21T08:37:41.538Z,101681.34
2023-05-21T08:40:09.245Z,101680.72
2023-05-21T08:42:46.719Z,101685.75
2023-05-21T08:45:14.529Z,101673.44
2023-05-21T08:47:44.989Z,101684.41
2023-05-21T08:50:13.363Z,101684.22
2023-05-21T08:52:40.635Z,101677.44
2023-05-21T08:55:08.690Z,101681.13
2023-05-21T08:57:35.339Z,101683.81
2023-05-21T09:00:02.735Z,101675.97
2023-05-21T09:02:34.116Z,101668.72
2023-05-21T09:05:03.241Z,101678.78
2023-05-21T09:07:31.736Z,101675.84
2023-05-21T09:10:05.707Z,101670.50
2023-05-21T09:12:32.870Z,101669.69
2023-05-21T09:15:01.350Z,101669.22
2023-05-21T09:17:28.201Z,101672.69
2023-05-21T09:20:24.878Z,101669.38
2023-05-21T09:22:51.660Z,101663.78
2023-05-21T09:25:24.793Z,101658.72
2023-05-21T09:27:51.528Z,101660.03
2023-05-21T09:30:21.029Z,101658.69
2023-05-21T09:32:56.536Z,101658.94
2023-05-21T09:35:23.302Z,101655.06
2023-05-21T09:37:52.388Z,101657.34
2023-05-21T09:40:20.965Z,101653.44
2023-05-21T09:42:48.774Z,101651.88
2023-05-21T09:45:22.417Z,101648.88
2023-05-21T09:47:50.271Z,101652.66
2023-05-21T09:50:25.118Z,101645.94
2023-05-21T09:52:53.012Z,101643.91
2023-05-21T09:55:22.437Z,101649.31
2023-05-21T09:57:50.736Z,101644.47
2023-05-21T10:00:21.730Z,101649.53
2023-05-21T10:02:50.009Z,101638.06
2023-05-21T10:05:17.549Z,101642.84
2023-05-21T10:07:50.294Z,101638.69
2023-05-21T10:10:22.910Z,101636.34
2023-05-21T10:12:58.945Z,101632.28
2023-05-21T10:15:28.138Z,101638.88
2023-05-21T10:17:56.236Z,101639.59
2023-05-21T10:20:23.096Z,101631.28
2023-05-21T10:22:50.793Z,101640.06
2023-05-21T10:25:17.502Z,101635.88
2023-05-21T10:27:45.093Z,101634.03
2023-05-21T10:30:12.026Z,101622.34
2023-05-21T10:32:40.529Z,101628.06
2023-05-21T10:35:08.822Z,101625.50
2023-05-21T10:37:35.691Z,101628.34
2023-05-21T10:40:02.258Z,101621.09
2023-05-21T10:42:31.812Z,101621.09
2023-05-21T10:45:13.893Z,101617.59
2023-05-21T10:47:56.971Z,101615.00
2023-05-21T10:50:45.100Z,101614.41
2023-05-21T10:53:34.347Z,101607.22
2023-05-21T10:56:46.938Z,101616.56
2023-05-21T10:59:34.157Z,101611.72
2023-05-21T11:02:01.756Z,101610.84
2023-05-21T11:04:30.591Z,101613.22
2023-05-21T11:06:59.569Z,101609.81
2023-05-21T11:09:27.000Z,101610.19
2023-05-21T11:11:57.975Z,101604.63
2023-05-21T11:14:39.528Z,101599.06
2023-05-21T11:17:09.367Z,101600.03
2023-05-21T11:19:38.366Z,101596.34
2023-05-21T11:22:10.745Z,101597.91
2023-05-21T11:24:39.593Z,101584.59
2023-05-21T11:27:07.008Z,101576.00
2023-05-21T11:29:41.699Z,101582.63
2023-05-21T11:32:09.774Z,101571.16
2023-05-21T11:34:47.082Z,101579.56
2023-05-21T11:37:16.546Z,101574.88
2023-05-21T11:39:50.926Z,101569.72
2023-05-21T11:42:39.571Z,101568.97
2023-05-21T11:45:07.236Z,101564.53
2023-05-21T11:47:33.843Z,101569.94
2023-05-21T11:50:02.989Z,101561.63
2023-05-21T11:52:33.192Z,101565.81
2023-05-21T11:55:00.019Z,101561.78
2023-05-21T11:57:31.841Z,101563.84
2023-05-21T12:00:01.390Z,101556.59
2023-05-21T12:02:32.561Z,101550.78
2023-05-21T12:05:00.330Z,101546.03
2023-05-21T12:07:29.734Z,101549.06
2023-05-21T12:09:56.670Z,101548.28
2023-05-21T12:12:26.332Z,101544.53
2023-05-21T12:14:55.899Z,101542.44
2023-05-21T12:17:24.592Z,101543.78
2023-05-21T12:19:53.576Z,101548.44
2023-05-21T12:22:21.445Z,101547.84
2023-05-21T12:24:48.817Z,101540.38
2023-05-21T12:27:16.989Z,101537.13
2023-05-21T12:29:45.558Z,101542.03
2023-05-21T12:32:13.773Z,101533.91
2023-05-21T12:34:57.103Z,101534.81
2023-05-21T12:37:27.958Z,101530.22
2023-05-21T12:39:56.087Z,101528.06
2023-05-21T12:42:27.366Z,101525.72
2023-05-21T12:44:53.916Z,101525.16
2023-05-21T12:47:24.430Z,101514.09
2023-05-21T12:49:55.366Z,101511.41
2023-05-21T12:52:22.228Z,101501.94
2023-05-21T12:54:54.259Z,101513.00
2023-05-21T12:57:25.520Z,101502.78
2023-05-21T13:00:00.587Z,101498.97
2023-05-21T13:02:29.504Z,101505.13
2023-05-21T13:04:58.885Z,101498.03
2023-05-21T13:07:26.637Z,101505.91
2023-05-21T13:09:54.151Z,101500.75
2023-05-21T13:12:22.354Z,101490.75
2023-05-21T13:14:50.789Z,101498.34
2023-05-21T13:17:18.407Z,101501.13
2023-05-21T13:19:46.530Z,101500.59
2023-05-21T13:22:12.949Z,101497.41
2023-05-21T13:24:39.889Z,101501.78
2023-05-21T13:27:06.740Z,101506.06
2023-05-21T13:29:33.252Z,101507.41
2023-05-21T13:31:59.901Z,101498.53
2023-05-21T13:34:26.344Z,101507.97
2023-05-21T13:36:52.805Z,101509.00
2023-05-21T13:39:19.410Z,101508.25
2023-05-21T13:41:47.462Z,101505.28
2023-05-21T13:44:13.904Z,101512.56
2023-05-21T13:46:40.523Z,101507.09
2023-05-21T13:49:07.102Z,101497.09
2023-05-21T13:51:39.031Z,101496.09
2023-05-21T13:54:06.150Z,101491.78
2023-05-21T13:56:33.789Z,101493.94
2023-05-21T13:59:01.630Z,101481.47
2023-05-21T14:01:28.293Z,101488.19
2023-05-21T14:03:54.776Z,101484.63
2023-05-21T14:06:21.362Z,101486.25
2023-05-21T14:08:47.968Z,101497.81
2023-05-21T14:11:14.395Z,101500.75
2023-05-21T14:13:41.319Z,101495.13
2023-05-21T14:16:08.109Z,101484.34
2023-05-21T14:18:34.683Z,101490.34
2023-05-21T14:21:02.106Z,101496.84
2023-05-21T14:23:28.530Z,101487.69
2023-05-21T14:25:55.085Z,101484.97
2023-05-21T14:28:21.754Z,101490.69
2023-05-21T14:30:48.321Z,101484.94
2023-05-21T14:33:14.935Z,101491.69
2023-05-21T14:35:43.853Z,101487.31
2023-05-21T14:38:11.014Z,101484.34
2023-05-21T14:40:37.575Z,101486.53
2023-05-21T14:43:04.186Z,101489.81
2023-05-21T14:45:33.022Z,101482.47
2023-05-21T14:47:59.503Z,101486.25
2023-05-21T14:50:26.045Z,101484.94
2023-05-21T14:52:52.658Z,101486.56
2023-05-21T14:55:22.210Z,101480.13
2023-05-21T14:57:52.130Z,101477.69
2023-05-21T15:00:19.053Z,101472.28
2023-05-21T15:02:48.349Z,101483.94
2023-05-21T15:05:18.285Z,101479.06
2023-05-21T15:07:44.768Z,101464.19
2023-05-21T15:10:11.839Z,101463.91
2023-05-21T15:12:39.664Z,101459.56
2023-05-21T15:15:08.286Z,101462.53
2023-05-21T15:17:35.295Z,101459.56
2023-05-21T15:20:04.465Z,101458.47
2023-05-21T15:22:31.656Z,101447.91
2023-05-21T15:24:58.176Z,101454.41
2023-05-21T15:27:25.255Z,101450.34
2023-05-21T15:29:52.004Z,101441.69
2023-05-21T15:32:20.789Z,101442.75
2023-05-21T15:34:48.657Z,101433.81
2023-05-21T15:37:16.063Z,101433.00
2023-05-21T15:39:43.387Z,101432.41
2023-05-21T15:42:14.493Z,101434.56
2023-05-21T15:44:41.789Z,101428.84
2023-05-21T15:47:08.508Z,101428.00
2023-05-21T15:49:37.994Z,101426.69
2023-05-21T15:52:12.831Z,101429.13
2023-05-21T15:54:41.681Z,101435.63
2023-05-21T15:57:08.147Z,101431.25
2023-05-21T15:59:34.724Z,101425.56
2023-05-21T16:02:01.437Z,101425.28
2023-05-21T16:04:27.917Z,101437.72
2023-05-21T16:06:54.397Z,101430.13
2023-05-21T16:09:20.968Z,101428.78
2023-05-21T16:11:48.796Z,101431.72
2023-05-21T16:14:15.464Z,101429.19
2023-05-21T16:16:41.956Z,101431.63
2023-05-21T16:19:08.568Z,101431.28
2023-05-21T16:21:35.055Z,101432.88
2023-05-21T16:24:03.187Z,101437.44
2023-05-21T16:26:30.141Z,101437.69
2023-05-21T16:28:56.911Z,101443.09
2023-05-21T16:31:23.453Z,101441.66
2023-05-21T16:33:50.621Z,101444.00
2023-05-21T16:36:18.050Z,101440.47
2023-05-21T16:38:45.081Z,101446.66
2023-05-21T16:41:14.113Z,101434.75
2023-05-21T16:43:41.138Z,101433.63
2023-05-21T16:46:07.768Z,101441.75
2023-05-21T16:48:38.381Z,101444.97
2023-05-21T16:51:05.033Z,101448.97
2023-05-21T16:53:31.510Z,101436.38
2023-05-21T16:55:59.040Z,101440.38
2023-05-21T16:58:25.571Z,101444.34
2023-05-21T17:00:52.620Z,101438.34
2023-05-21T17:03:20.054Z,101452.81
2023-05-21T17:05:46.942Z,101452.16
2023-05-21T17:08:13.846Z,101446.88
2023-05-21T17:10:40.835Z,101446.25
2023-05-21T17:13:21.730Z,101452.16
2023-05-21T17:15:50.798Z,101447.69
2023-05-21T17:18:17.764Z,101447.94
2023-05-21T17:20:44.324Z,101449.75
2023-05-21T17:23:11.769Z,101451.47
2023-05-21T17:25:38.902Z,101452.00
2023-05-21T17:28:05.664Z,101445.22
2023-05-21T17:30:32.103Z,101452.91
2023-05-21T17:32:58.647Z,101447.47
2023-05-21T17:35:25.205Z,101440.91
2023-05-21T17:37:53.301Z,101442.69
2023-05-21T17:40:21.427Z,101447.81
2023-05-21T17:42:48.048Z,101446.34
2023-05-21T17:45:14.552Z,101444.31
2023-05-21T17:47:41.199Z,101445.47
2023-05-21T17:50:08.496Z,101441.53
2023-05-21T17:52:34.952Z,101450.59
2023-05-21T17:55:01.714Z,101452.03
2023-05-21T17:57:28.239Z,101449.50
2023-05-21T17:59:55.482Z,101455.84
2023-05-21T18:02:23.541Z,101448.63
2023-05-21T18:04:50.098Z,101453.09
2023-05-21T18:07:16.690Z,101446.69
2023-05-21T18:09:43.212Z,101442.38
2023-05-21T18:12:09.793Z,101460.06
2023-05-21T18:14:36.259Z,101454.00
2023-05-21T18:17:02.873Z,101456.84
2023-05-21T18:19:30.537Z,101459.06
2023-05-21T18:21:57.316Z,101454.28
2023-05-21T18:24:31.341Z,101456.88
2023-05-21T18:26:57.862Z,101456.28
2023-05-21T18:29:24.642Z,101450.94
2023-05-21T18:31:51.680Z,101453.50
2023-05-21T18:34:18.840Z,101445.81
2023-05-21T18:36:46.894Z,101447.09
2023-05-21T18:39:13.657Z,101452.13
2023-05-21T18:41:40.986Z,101445.69
2023-05-21T18:44:07.592Z,101455.72
2023-05-21T18:46:34.799Z,101449.63
2023-05-21T18:49:01.647Z,101446.72
2023-05-21T18:51:31.944Z,101445.19
2023-05-21T18:53:58.915Z,101444.91
2023-05-21T18:56:26.178Z,101443.06
2023-05-21T18:58:52.714Z,101443.84
2023-05-21T19:01:19.798Z,101435.13
2023-05-21T19:03:46.343Z,101443.00
2023-05-21T19:06:15.807Z,101432.91
2023-05-21T19:08:42.687Z,101440.53
2023-05-21T19:11:09.855Z,101439.28
2023-05-21T19:13:36.572Z,101440.00
2023-05-21T19:16:03.747Z,101439.13
2023-05-21T19:18:32.240Z,101443.34
2023-05-21T19:21:00.679Z,101440.38
2023-05-21T19:23:27.500Z,101439.84
2023-05-21T19:25:54.305Z,101444.44
2023-05-21T19:28:24.009Z,101450.28
2023-05-21T19:30:50.701Z,101440.69
2023-05-21T19:33:18.115Z,101436.88
2023-05-21T19:35:47.987Z,101438.56
2023-05-21T19:38:15.303Z,101444.38
2023-05-21T19:40:41.780Z,101442.97
2023-05-21T19:43:08.261Z,101446.53
2023-05-21T19:45:34.846Z,101445.59
2023-05-21T19:48:01.608Z,101445.88
2023-05-21T19:50:28.866Z,101444.06
2023-05-21T19:52:57.354Z,101450.63
2023-05-21T19:55:27.108Z,101453.53
2023-05-21T19:57:53.639Z,101458.09
2023-05-21T20:00:20.535Z,101449.28
2023-05-21T20:02:47.062Z,101448.25
2023-05-21T20:05:13.699Z,101453.00
2023-05-21T20:07:41.302Z,101448.31
2023-05-21T20:10:08.766Z,101454.94
2023-05-21T20:12:35.758Z,101454.53
2023-05-21T20:15:03.458Z,101453.16
2023-05-21T20:17:30.560Z,101458.69
2023-05-21T20:19:58.992Z,101453.34
2023-05-21T20:22:25.572Z,101458.47
2023-05-21T20:24:52.074Z,101461.16
2023-05-21T20:27:19.370Z,101463.81
2023-05-21T20:29:46.261Z,101453.34
2023-05-21T20:32:13.017Z,101452.75
2023-05-21T20:34:54.193Z,101453.34
2023-05-21T20:37:27.992Z,101455.00
2023-05-21T20:39:58.076Z,101451.91
2023-05-21T20:42:28.721Z,101460.09
2023-05-21T20:44:58.801Z,101454.53
2023-05-21T20:47:29.928Z,101453.28
2023-05-21T20:49:57.765Z,101457.38
2023-05-21T20:52:24.864Z,101448.56
2023-05-21T20:54:54.961Z,101443.41
2023-05-21T20:57:26.198Z,101438.91
2023-05-21T20:59:53.363Z,101449.16
2023-05-21T21:02:20.508Z,101446.91
2023-05-21T21:04:49.139Z,101450.19
2023-05-21T21:07:18.058Z,101440.34
2023-05-21T21:09:45.435Z,101450.38
2023-05-21T21:12:24.775Z,101449.19
2023-05-21T21:14:52.307Z,101450.81
2023-05-21T21:17:18.839Z,101443.00
2023-05-21T21:19:45.389Z,101446.66
2023-05-21T21:22:12.041Z,101453.44
2023-05-21T21:24:38.561Z,101453.00
2023-05-21T21:27:05.396Z,101457.34
2023-05-21T21:29:32.019Z,101450.53
2023-05-21T21:31:58.539Z,101455.22
2023-05-21T21:34:25.321Z,101457.47
2023-05-21T21:36:51.870Z,101459.03
2023-05-21T21:39:18.364Z,101457.41
2023-05-21T21:41:45.650Z,101454.50
2023-05-21T21:44:12.411Z,101455.94
2023-05-21T21:46:39.098Z,101450.56
2023-05-21T21:49:05.658Z,101449.16
2023-05-21T21:51:32.240Z,101449.09
2023-05-21T21:53:58.697Z,101457.56
2023-05-21T21:56:25.155Z,101449.69
2023-05-21T21:58:51.731Z,101439.00
2023-05-21T22:01:18.957Z,101444.34
2023-05-21T22:03:45.682Z,101452.75
2023-05-21T22:06:12.357Z,101448.84
2023-05-21T22:08:38.786Z,101455.78
2023-05-21T22:11:05.528Z,101463.56
2023-05-21T22:13:31.995Z,101477.72
2023-05-21T22:15:58.580Z,101500.91
2023-05-21T22:18:39.565Z,101532.50
2023-05-21T22:21:09.500Z,101530.81
2023-05-21T22:23:37.118Z,101538.25
2023-05-21T22:26:03.737Z,101549.81
2023-05-21T22:28:30.256Z,101536.31
2023-05-21T22:30:56.743Z,101531.78
2023-05-21T22:33:23.241Z,101522.91
2023-05-21T22:35:49.876Z,101501.59
2023-05-21T22:38:17.816Z,101487.03
2023-05-21T22:40:44.352Z,101484.16
2023-05-21T22:43:11.019Z,101471.47
2023-05-21T22:45:38.401Z,101473.06
2023-05-21T22:48:08.523Z,101469.16
2023-05-21T22:50:36.176Z,101465.81
2023-05-21T22:53:02.905Z,101473.63
2023-05-21T22:55:29.646Z,101467.66
2023-05-21T22:57:56.232Z,101468.44
2023-05-21T23:00:22.944Z,101463.47
2023-05-21T23:02:50.765Z,101465.72
2023-05-21T23:05:19.830Z,101458.91
2023-05-21T23:07:46.595Z,101458.50
2023-05-21T23:10:13.047Z,101451.50
2023-05-21T23:12:40.856Z,101444.75
2023-05-21T23:15:09.760Z,101447.13
2023-05-21T23:17:37.201Z,101442.09
2023-05-21T23:20:04.710Z,101448.03
2023-05-21T23:22:31.632Z,101438.41
2023-05-21T23:24:58.216Z,101431.22
2023-05-21T23:27:24.732Z,101425.09
2023-05-21T23:29:51.315Z,101425.72
2023-05-21T23:32:18.032Z,101421.03
2023-05-21T23:34:44.722Z,101420.22
2023-05-21T23:37:11.377Z,101420.06
2023-05-21T23:39:37.935Z,101413.91
2023-05-21T23:42:04.970Z,101415.19
2023-05-21T23:44:31.581Z,101419.47
2023-05-21T23:46:58.049Z,101415.81
2023-05-21T23:49:24.580Z,101421.75
2023-05-21T23:51:51.120Z,101426.69
2023-05-21T23:54:17.703Z,101430.28
2023-05-21T23:56:44.260Z,101431.78
2023-05-21T23:59:10.957Z,101436.69
